Time;durP1;ratioP1;P1;durP2;ratioP2;P2;SDS_P1;SDS_P2;PMS_P1;PMS_P2;Temp;Humidity;BMP_temperature;BMP_pressure;BME280_temperature;BME280_humidity;BME280_pressure;Samples;Min_cycle;Max_cycle;Signal;HPM_P1;HPM_P2
2021/06/15 00:00:11;;;;;;;13.40;9.10;;;;;;;11.45;72.53;99087.39;262753;1090;22806;-71
2021/06/15 00:05:56;;;;;;;12.23;8.43;;;;;;;11.39;72.91;99077.82;261998;1090;22821;-72
2021/06/15 00:12:08;;;;;;;11.40;8.15;;;;;;;11.34;73.28;99081.34;261799;1090;22852;-71
2021/06/15 00:18:15;;;;;;;13.53;8.30;;;;;;;11.32;73.79;99080.84;261751;1090;22811;-71
2021/06/15 00:24:08;;;;;;;7.90;6.40;;;;;;;11.25;73.88;99078.49;262683;1090;22884;-72
2021/06/15 00:30:22;;;;;;;8.90;6.75;;;;;;;11.11;73.81;99073.01;262445;1090;22795;-72
2021/06/15 00:35:50;;;;;;;12.53;7.13;;;;;;;10.88;74.41;99074.56;262681;1089;22795;-72
2021/06/15 00:41:57;;;;;;;9.40;6.70;;;;;;;10.69;74.55;99060.27;262684;1090;22806;-71
2021/06/15 00:48:55;;;;;;;10.23;7.17;;;;;;;10.53;74.75;99063.09;262436;1090;22873;-71
2021/06/15 00:55:25;;;;;;;11.90;7.47;;;;;;;10.48;75.17;99056.97;261965;1090;22786;-72
2021/06/15 01:01:56;;;;;;;13.53;9.23;;;;;;;10.58;75.76;99054.23;262777;1090;22790;-74
2021/06/15 01:08:04;;;;;;;14.60;9.30;;;;;;;10.59;75.38;99051.27;261861;1090;23033;-70
2021/06/15 01:14:55;;;;;;;16.93;10.13;;;;;;;10.59;75.27;99045.91;262425;1090;22810;-72
2021/06/15 01:21:38;;;;;;;16.23;9.50;;;;;;;10.56;75.08;99042.98;261828;1090;22838;-71
2021/06/15 02:16:31;;;;;;;23.63;15.03;;;;;;;10.43;75.88;99015.77;262707;1089;22952;-71
2021/06/15 02:24:06;;;;;;;;;;;;;;;;;;;;;
2021/06/15 02:30:38;;;;;;;23.63;17.63;;;;;;;10.37;75.63;99018.78;261780;1088;22943;-72
2021/06/15 02:37:25;;;;;;;22.70;16.50;;;;;;;10.35;75.58;99008.36;262630;1089;22786;-72
2021/06/15 02:44:40;;;;;;;;;;;;;;;;;;;;;
2021/06/15 02:57:54;;;;;;;;;;;;;;;;;;;;;
2021/06/15 03:11:22;;;;;;;19.07;14.27;;;;;;;10.23;76.04;99024.73;262654;1089;22874;-72
2021/06/15 03:17:47;;;;;;;19.37;15.13;;;;;;;10.34;76.09;99038.03;261982;1090;22816;-73
2021/06/15 03:24:06;;;;;;;22.53;15.70;;;;;;;10.81;76.11;99033.91;262613;1090;26293;-70
2021/06/15 03:30:19;;;;;;;;;;;;;;;;;;;;;
2021/06/15 03:36:34;;;;;;;21.40;14.30;;;;;;;12.14;75.15;99027.98;262566;1090;22918;-72
2021/06/15 03:49:43;;;;;;;;;;;;;;;;;;;;;
2021/06/15 03:56:55;;;;;;;;;;;;;;;;;;;;;
2021/06/15 04:02:59;;;;;;;16.95;11.75;;;;;;;15.09;71.01;99023.42;262847;1090;22812;-72
2021/06/15 04:09:21;;;;;;;14.10;11.35;;;;;;;15.36;68.38;99011.58;262753;1090;22872;-71
2021/06/15 04:15:12;;;;;;;13.75;11.00;;;;;;;15.28;67.66;99017.75;262790;1090;25418;-72
2021/06/15 04:21:10;;;;;;;;;;;;;;;;;;;;;
2021/06/15 04:26:57;;;;;;;15.30;11.17;;;;;;;14.80;67.64;99008.53;262589;1090;22834;-71
2021/06/15 04:33:26;;;;;;;14.85;10.90;;;;;;;14.60;67.85;99024.11;262868;1089;22827;-71
2021/06/15 04:40:03;;;;;;;12.57;8.37;;;;;;;14.36;67.77;99029.84;262869;1089;26471;-71
2021/06/15 04:45:56;;;;;;;11.65;7.90;;;;;;;14.24;67.93;99033.06;262867;1089;26347;-71
2021/06/15 04:52:42;;;;;;;12.35;9.00;;;;;;;14.17;67.88;99040.79;262783;1090;22781;-72
2021/06/15 05:05:13;;;;;;;14.05;9.65;;;;;;;14.16;68.59;99044.61;262796;1090;26261;-71
2021/06/15 05:11:17;;;;;;;;;;;;;;;;;;;;;
2021/06/15 05:17:22;;;;;;;13.05;8.20;;;;;;;14.36;68.38;99040.62;262341;1089;22937;-71
2021/06/15 05:23:46;;;;;;;12.30;8.35;;;;;;;14.51;68.44;99040.23;261719;1090;26005;-70
2021/06/15 05:30:29;;;;;;;13.05;8.95;;;;;;;14.66;68.19;99043.67;262693;1090;22947;-70
2021/06/15 05:36:49;;;;;;;15.55;9.80;;;;;;;14.90;68.89;99054.13;261844;1090;22844;-71
2021/06/15 05:48:34;;;;;;;12.30;9.20;;;;;;;15.55;68.63;99052.59;262858;1090;25822;-71
2021/06/15 05:54:57;;;;;;;14.90;10.20;;;;;;;15.88;67.56;99060.31;261948;1090;22792;-71
2021/06/15 06:01:12;;;;;;;12.85;7.85;;;;;;;16.09;66.28;99075.91;262489;1090;22811;-72
2021/06/15 06:22:04;;;;;;;9.60;7.10;;;;;;;16.81;64.04;99079.00;262732;1089;22850;-71
2021/06/15 06:28:20;;;;;;;;;;;;;;;;;;;;;
2021/06/15 06:34:14;;;;;;;;;;;;;;;;;;;;;
2021/06/15 06:39:48;;;;;;;13.50;8.40;;;;;;;17.57;63.47;99085.59;263317;1088;23152;-73
2021/06/15 06:46:11;;;;;;;;;;;;;;;;;;;;;
2021/06/15 06:52:50;;;;;;;;;;;;;;;;;;;;;
2021/06/15 06:59:36;;;;;;;11.50;9.25;;;;;;;18.34;61.69;99076.47;262517;1090;23353;-72
2021/06/15 07:11:28;;;;;;;11.25;7.45;;;;;;;19.03;60.89;99065.23;262530;1090;24333;-71
2021/06/15 07:16:56;;;;;;;10.10;7.10;;;;;;;19.36;59.79;99072.51;262120;1089;22937;-72
2021/06/15 07:23:09;;;;;;;9.87;6.97;;;;;;;19.73;59.59;99067.84;262263;1089;22817;-71
2021/06/15 07:29:24;;;;;;;11.60;6.60;;;;;;;19.95;57.23;99077.45;262647;1089;22876;-71
2021/06/15 07:35:15;;;;;;;9.90;6.00;;;;;;;20.12;56.42;99079.11;262652;1090;25308;-70
2021/06/15 07:40:44;;;;;;;7.38;5.23;;;;;;;20.22;55.08;99066.95;262201;1089;22875;-72
2021/06/15 07:46:17;;;;;;;11.20;6.00;;;;;;;20.30;54.80;99068.73;262326;1089;22877;-71
2021/06/15 07:52:50;;;;;;;10.07;5.93;;;;;;;20.54;53.70;99064.33;262994;1090;22937;-69
2021/06/15 07:58:11;;;;;;;;;;;;;;;;;;;;;
2021/06/15 08:03:26;;;;;;;;;;;;;;;;;;;;;
2021/06/15 08:09:51;;;;;;;8.63;4.60;;;;;;;21.18;51.75;99072.56;262869;1089;23446;-71
2021/06/15 08:15:21;;;;;;;6.80;3.83;;;;;;;21.52;49.98;99068.34;262482;1090;22820;-72
2021/06/15 08:20:49;;;;;;;3.40;2.75;;;;;;;21.81;48.90;99063.54;262690;1088;22876;-73
2021/06/15 08:26:56;;;;;;;5.88;4.03;;;;;;;21.77;46.50;99062.67;262636;1089;22918;-73
2021/06/15 08:33:04;;;;;;;;;;;;;;;;;;;;;
2021/06/15 08:39:23;;;;;;;9.95;4.78;;;;;;;21.77;45.72;99064.59;262729;1089;22841;-73
2021/06/15 08:45:48;;;;;;;5.85;3.78;;;;;;;21.94;44.82;99047.05;262950;1089;22926;-72
2021/06/15 08:52:21;;;;;;;;;;;;;;;;;;;;;
2021/06/15 08:58:45;;;;;;;6.23;4.28;;;;;;;22.38;44.50;99046.77;262869;1090;26395;-72
2021/06/15 09:04:33;;;;;;;7.68;4.55;;;;;;;22.58;44.15;99046.73;262651;1089;22831;-71
2021/06/15 09:10:20;;;;;;;;;;;;;;;;;;;;;
2021/06/15 09:15:57;;;;;;;;;;;;;;;;;;;;;
2021/06/15 09:21:53;;;;;;;6.23;4.20;;;;;;;23.29;44.17;99035.45;262815;1089;22815;-72
2021/06/15 09:27:16;;;;;;;9.65;5.25;;;;;;;23.77;43.59;99037.68;263772;1089;23269;-72
2021/06/15 09:32:26;;;;;;;7.30;4.18;;;;;;;24.11;43.52;99043.23;263241;1088;22871;-72
2021/06/15 09:37:49;;;;;;;7.50;4.67;;;;;;;24.39;42.31;99027.11;263837;1089;22806;-71
2021/06/15 09:43:33;;;;;;;5.25;4.63;;;;;;;24.41;41.71;99022.06;263434;1090;22802;-73
2021/06/15 09:48:38;;;;;;;5.30;4.25;;;;;;;24.76;41.90;99018.12;263246;1090;22779;-71
2021/06/15 09:53:58;;;;;;;6.58;4.53;;;;;;;24.88;41.51;99017.03;263988;1089;23603;-73
2021/06/15 09:59:07;;;;;;;6.50;4.45;;;;;;;25.11;40.96;99022.31;263122;1088;22819;-72
2021/06/15 10:04:39;;;;;;;8.10;5.95;;;;;;;25.09;39.20;99018.38;262991;1090;27173;-73
2021/06/15 10:10:13;;;;;;;9.10;5.30;;;;;;;25.10;39.52;99028.95;263551;1089;22812;-72
2021/06/15 10:15:44;;;;;;;7.87;4.37;;;;;;;25.46;39.49;99014.71;262967;1090;25842;-72
2021/06/15 10:21:35;;;;;;;5.08;4.33;;;;;;;25.23;37.54;99025.91;262675;1089;22857;-72
2021/06/15 10:27:13;;;;;;;6.60;4.53;;;;;;;25.14;37.62;99009.00;262995;1089;22833;-73
2021/06/15 10:32:58;;;;;;;5.53;4.65;;;;;;;25.31;37.28;99010.28;263018;1089;22962;-72
2021/06/15 10:38:58;;;;;;;6.15;4.40;;;;;;;25.58;37.83;98999.91;262865;1090;22931;-72
2021/06/15 10:44:32;;;;;;;8.00;4.00;;;;;;;25.54;37.21;99007.33;263174;1088;22944;-71
2021/06/15 10:50:12;;;;;;;;;;;;;;;;;;;;;
2021/06/15 10:56:17;;;;;;;;;;;;;;;;;;;;;
2021/06/15 11:02:10;;;;;;;5.55;3.78;;;;;;;25.98;37.38;98981.66;263439;1089;24360;-72
2021/06/15 11:07:45;;;;;;;5.78;4.00;;;;;;;26.23;36.68;98968.02;263419;1090;22872;-72
2021/06/15 11:12:49;;;;;;;5.98;4.00;;;;;;;26.42;36.52;98975.09;263426;1089;22868;-72
2021/06/15 11:18:16;;;;;;;5.83;4.58;;;;;;;26.53;36.30;98974.34;263028;1089;22786;-73
2021/06/15 11:23:29;;;;;;;6.60;5.95;;;;;;;26.70;35.99;98975.55;263224;1090;22830;-73
2021/06/15 11:29:21;;;;;;;5.03;4.48;;;;;;;26.70;34.72;98979.08;262721;1088;22785;-72
2021/06/15 11:34:27;;;;;;;5.08;4.30;;;;;;;26.52;34.42;98972.77;263025;1089;22805;-74
2021/06/15 11:39:49;;;;;;;5.23;4.35;;;;;;;26.66;35.48;98967.27;262346;1089;22789;-73
2021/06/15 11:45:42;;;;;;;6.40;5.35;;;;;;;26.72;34.56;98962.19;262560;1090;23073;-73
2021/06/15 11:50:55;;;;;;;4.83;3.95;;;;;;;26.60;33.97;98966.88;262254;1088;23443;-73
2021/06/15 11:56:11;;;;;;;;;;;;;;;26.60;34.05;98960.61;262592;1088;22815;-73
2021/06/15 12:01:36;;;;;;;4.20;3.25;;;;;;;26.46;33.73;98953.91;262724;1090;21472;-73
2021/06/15 12:07:38;;;;;;;6.07;3.70;;;;;;;26.30;33.16;98948.81;263003;1090;22793;-72
2021/06/15 12:13:09;;;;;;;5.40;3.97;;;;;;;26.25;33.56;98942.92;262263;1090;25894;-72
2021/06/15 12:18:22;;;;;;;5.48;3.53;;;;;;;26.24;33.32;98944.86;263044;1088;22802;-72
2021/06/15 12:23:29;;;;;;;4.75;3.33;;;;;;;26.08;32.35;98941.72;262340;1090;25884;-72
2021/06/15 12:28:35;;;;;;;4.78;3.38;;;;;;;25.93;33.10;98929.88;263192;1089;25197;-71
2021/06/15 12:33:40;;;;;;;3.90;2.97;;;;;;;26.04;33.13;98922.48;262995;1090;25357;-72
2021/06/15 12:38:46;;;;;;;4.80;3.35;;;;;;;26.22;33.31;98918.97;262387;1090;22789;-72
2021/06/15 12:43:52;;;;;;;5.15;3.45;;;;;;;26.42;33.55;98911.16;262767;1089;25881;-72
2021/06/15 12:48:59;;;;;;;5.58;3.80;;;;;;;26.58;33.64;98910.75;262808;1090;22811;-73
2021/06/15 12:54:19;;;;;;;5.80;4.30;;;;;;;26.43;32.99;98901.75;263115;1090;22877;-72
2021/06/15 12:59:26;;;;;;;4.85;3.93;;;;;;;26.20;33.75;98894.66;263409;1089;22811;-72
2021/06/15 13:04:30;;;;;;;4.68;3.35;;;;;;;26.33;33.89;98889.59;263020;1089;22887;-73
2021/06/15 13:09:34;;;;;;;5.55;3.60;;;;;;;26.38;33.83;98891.15;263250;1090;22794;-72
2021/06/15 13:15:10;;;;;;;;;;;;;;;;;;;;;
2021/06/15 13:20:57;;;;;;;5.00;3.87;;;;;;;26.19;33.85;98890.36;263147;1089;22805;-72
2021/06/15 13:26:26;;;;;;;6.15;3.85;;;;;;;26.14;33.91;98888.00;263203;1089;22812;-72
2021/06/15 13:31:30;;;;;;;4.43;3.78;;;;;;;26.10;33.53;98879.74;262867;1090;22776;-73
2021/06/15 13:36:47;;;;;;;5.15;4.30;;;;;;;26.20;33.39;98874.66;262937;1090;23098;-72
2021/06/15 13:42:28;;;;;;;4.40;3.63;;;;;;;26.23;33.84;98865.64;263339;1090;22779;-72
2021/06/15 13:47:36;;;;;;;4.90;3.75;;;;;;;26.03;32.65;98866.02;262321;1090;23552;-72
2021/06/15 13:52:40;;;;;;;5.90;4.40;;;;;;;25.84;32.66;98869.09;262819;1089;22783;-72
2021/06/15 13:58:01;;;;;;;3.78;3.40;;;;;;;25.93;33.24;98861.28;262813;1088;22784;-71
2021/06/15 14:03:24;;;;;;;5.58;3.13;;;;;;;26.16;33.48;98860.92;262841;1090;22795;-70
2021/06/15 14:08:41;;;;;;;3.80;3.30;;;;;;;26.33;32.72;98867.63;263014;1090;22791;-71
2021/06/15 14:13:45;;;;;;;4.37;3.97;;;;;;;26.53;32.60;98858.98;263619;1089;22896;-70
2021/06/15 14:19:16;;;;;;;4.25;3.53;;;;;;;26.71;32.57;98865.26;263394;1089;25983;-72
2021/06/15 14:24:28;;;;;;;4.07;3.67;;;;;;;26.80;32.75;98862.09;262609;1090;22796;-71
2021/06/15 14:29:33;;;;;;;3.68;3.28;;;;;;;26.74;32.67;98861.71;262188;1090;23299;-72
2021/06/15 14:34:39;;;;;;;6.83;3.78;;;;;;;26.63;32.44;98852.67;262135;1090;22815;-72
2021/06/15 14:39:55;;;;;;;5.03;4.00;;;;;;;26.73;33.01;98854.64;262599;1090;22787;-72
2021/06/15 14:45:20;;;;;;;4.88;4.38;;;;;;;26.79;32.65;98857.77;262761;1090;23420;-71
2021/06/15 14:50:23;;;;;;;6.28;4.15;;;;;;;26.83;33.12;98860.52;262526;1088;22797;-71
2021/06/15 14:55:28;;;;;;;5.55;4.33;;;;;;;26.78;33.53;98846.00;262860;1089;23078;-71
2021/06/15 15:00:41;;;;;;;7.25;4.18;;;;;;;26.74;33.28;98839.73;262948;1089;25986;-72
2021/06/15 15:05:45;;;;;;;4.35;3.65;;;;;;;26.76;33.12;98840.11;262645;1090;24515;-72
2021/06/15 15:10:48;;;;;;;4.73;4.25;;;;;;;26.79;32.75;98833.84;262616;1090;22823;-74
2021/06/15 15:15:52;;;;;;;4.55;3.80;;;;;;;26.71;32.80;98837.78;262576;1090;24323;-71
2021/06/15 15:20:57;;;;;;;5.03;4.00;;;;;;;26.76;33.58;98842.08;262943;1088;25898;-72
2021/06/15 15:26:04;;;;;;;4.30;3.50;;;;;;;26.71;32.72;98829.54;262251;1090;26696;-72
2021/06/15 15:31:21;;;;;;;4.60;3.70;;;;;;;26.57;32.75;98838.56;262161;1090;22767;-71
2021/06/15 15:36:29;;;;;;;5.10;4.60;;;;;;;26.52;33.33;98838.17;261962;1090;22847;-72
2021/06/15 15:41:38;;;;;;;7.90;4.25;;;;;;;26.54;33.46;98831.11;262168;1090;23015;-71
2021/06/15 15:46:44;;;;;;;5.08;4.35;;;;;;;26.61;33.88;98822.86;261906;1090;22734;-72
2021/06/15 15:51:48;;;;;;;5.65;4.70;;;;;;;26.55;33.98;98827.17;262770;1090;22834;-71
2021/06/15 15:57:01;;;;;;;5.08;4.58;;;;;;;26.49;34.64;98831.50;262917;1090;22827;-72
2021/06/15 16:02:16;;;;;;;6.35;4.70;;;;;;;26.34;35.10;98827.20;262561;1089;22825;-72
2021/06/15 16:07:29;;;;;;;6.10;4.57;;;;;;;26.06;35.03;98823.28;262048;1089;22816;-72
2021/06/15 16:19:30;;;;;;;6.80;5.13;;;;;;;25.52;36.57;98812.20;262042;1090;25880;-70
2021/06/15 16:24:33;;;;;;;5.13;4.33;;;;;;;25.50;36.59;98815.33;262371;1089;23359;-71
2021/06/15 16:29:43;;;;;;;4.78;4.28;;;;;;;25.57;36.86;98815.34;262529;1090;26245;-72
2021/06/15 16:34:46;;;;;;;4.80;4.25;;;;;;;25.59;36.92;98820.47;262971;1089;22789;-71
2021/06/15 16:39:53;;;;;;;6.60;4.20;;;;;;;25.52;37.17;98812.20;263000;1090;22785;-73
2021/06/15 16:45:04;;;;;;;4.45;4.03;;;;;;;25.43;36.93;98805.13;262879;1089;22789;-72
2021/06/15 16:50:15;;;;;;;;;;;;;;;25.33;37.04;98810.59;262817;1089;22851;-71
2021/06/15 16:55:20;;;;;;;4.10;3.30;;;;;;;25.18;37.44;98804.24;262816;1090;25280;-72
2021/06/15 17:00:26;;;;;;;4.65;3.48;;;;;;;25.16;37.28;98801.89;262454;1089;22862;-71
2021/06/15 17:05:36;;;;;;;4.70;3.60;;;;;;;25.30;37.48;98801.16;262892;1090;22785;-71
2021/06/15 17:10:50;;;;;;;4.83;3.50;;;;;;;26.41;37.51;98802.48;262536;1088;22929;-72
2021/06/15 17:15:59;;;;;;;4.23;3.78;;;;;;;28.04;36.82;98799.82;263026;1089;22793;-71
2021/06/15 17:21:07;;;;;;;4.20;3.63;;;;;;;29.63;35.22;98798.86;262777;1090;22971;-71
2021/06/15 17:26:14;;;;;;;4.30;3.78;;;;;;;30.54;33.39;98798.98;262837;1090;24324;-72
2021/06/15 17:31:18;;;;;;;7.18;3.80;;;;;;;31.35;33.02;98805.30;262894;1089;22875;-73
2021/06/15 17:36:34;;;;;;;5.13;4.38;;;;;;;31.61;31.83;98809.09;262850;1089;22767;-71
2021/06/15 17:42:06;;;;;;;6.58;4.38;;;;;;;30.66;31.99;98803.88;262797;1088;22823;-73
2021/06/15 17:47:42;;;;;;;5.13;4.45;;;;;;;29.42;33.30;98811.76;262554;1090;23048;-71
2021/06/15 17:53:10;;;;;;;7.00;5.20;;;;;;;28.05;34.52;98807.70;262805;1090;22870;-74
2021/06/15 17:58:14;;;;;;;7.10;5.28;;;;;;;26.91;35.50;98807.11;262402;1090;22812;-72
2021/06/15 18:03:20;;;;;;;6.40;5.28;;;;;;;26.03;36.78;98804.86;262445;1089;22862;-72
2021/06/15 18:08:34;;;;;;;7.33;5.35;;;;;;;25.38;37.59;98808.27;262538;1090;25745;-71
2021/06/15 18:14:07;;;;;;;6.60;5.58;;;;;;;24.83;37.92;98806.43;263019;1090;22788;-71
2021/06/15 18:19:47;;;;;;;6.13;4.58;;;;;;;24.29;39.14;98803.34;262616;1090;22880;-73
2021/06/15 18:25:13;;;;;;;;;;;;;;;23.81;39.48;98803.30;262692;1090;22844;-72
2021/06/15 18:30:32;;;;;;;6.25;4.50;;;;;;;23.34;40.33;98800.88;262794;1090;24226;-72
2021/06/15 18:35:50;;;;;;;5.28;4.23;;;;;;;22.92;40.76;98801.91;262690;1089;22789;-72
2021/06/15 18:41:23;;;;;;;6.55;4.25;;;;;;;22.54;41.59;98807.25;262870;1090;26249;-71
2021/06/15 18:47:09;;;;;;;;;;;;;;;;;;;;;
2021/06/15 18:52:47;;;;;;;5.93;3.70;;;;;;;21.86;42.39;98800.69;262634;1090;26066;-72
2021/06/15 18:58:07;;;;;;;4.73;3.60;;;;;;;21.58;43.08;98806.42;262651;1090;27529;-71
2021/06/15 19:03:36;;;;;;;9.17;6.50;;;;;;;21.31;43.44;98812.52;262846;1089;25992;-72
2021/06/15 19:09:36;;;;;;;;;;;;;;;;;;;;;
2021/06/15 19:15:56;;;;;;;10.35;5.40;;;;;;;20.82;44.77;98815.79;262438;1090;22783;-71
2021/06/15 19:21:26;;;;;;;6.88;4.93;;;;;;;20.62;44.98;98810.28;262105;1090;23038;-71
2021/06/15 19:26:33;;;;;;;8.70;6.20;;;;;;;20.50;45.78;98823.98;262552;1089;22850;-72
2021/06/15 19:31:43;;;;;;;7.60;4.60;;;;;;;20.34;45.73;98827.52;262056;1090;25862;-71
2021/06/15 19:37:03;;;;;;;9.00;4.65;;;;;;;20.17;46.05;98841.45;262505;1089;22833;-71
2021/06/15 19:42:22;;;;;;;8.30;4.87;;;;;;;20.00;46.90;98839.88;262865;1088;26019;-72
2021/06/15 19:47:27;;;;;;;9.57;6.10;;;;;;;19.86;47.19;98834.86;262347;1089;22804;-72
2021/06/15 19:52:36;;;;;;;7.63;5.40;;;;;;;19.69;47.71;98837.89;262524;1090;22934;-72
2021/06/15 19:57:40;;;;;;;8.10;5.30;;;;;;;19.52;47.72;98839.77;262490;1090;25992;-72
2021/06/15 20:02:50;;;;;;;7.37;5.47;;;;;;;19.37;47.93;98835.86;262523;1089;22873;-71
2021/06/15 20:08:00;;;;;;;7.65;5.45;;;;;;;19.22;48.27;98834.66;262908;1089;24316;-71
2021/06/15 20:13:04;;;;;;;7.35;5.45;;;;;;;19.07;49.52;98844.33;262645;1090;22802;-71
2021/06/15 20:18:17;;;;;;;7.80;4.90;;;;;;;18.94;50.94;98845.48;262811;1089;22838;-71
2021/06/15 20:24:09;;;;;;;9.55;5.70;;;;;;;18.80;51.41;98846.62;262845;1090;22793;-72
2021/06/15 20:29:40;;;;;;;8.30;5.40;;;;;;;18.66;52.14;98842.67;262000;1090;22833;-72
2021/06/15 20:34:50;;;;;;;9.70;5.40;;;;;;;18.51;52.95;98844.14;262892;1090;22844;-72
2021/06/15 20:45:54;;;;;;;8.10;4.70;;;;;;;18.26;54.10;98838.73;262632;1089;22783;-71
2021/06/15 20:51:06;;;;;;;9.80;5.73;;;;;;;18.21;54.74;98839.72;262961;1089;22907;-71
2021/06/15 20:56:13;;;;;;;9.70;6.30;;;;;;;18.15;55.46;98841.08;262990;1089;22806;-71
2021/06/15 21:01:16;;;;;;;13.83;10.00;;;;;;;18.03;56.28;98844.55;262688;1088;22942;-71
2021/06/15 21:06:21;;;;;;;10.90;8.07;;;;;;;17.89;56.91;98850.27;262619;1090;22862;-71
2021/06/15 21:11:27;;;;;;;12.80;8.40;;;;;;;17.78;57.47;98859.92;262646;1088;22813;-73
2021/06/15 21:16:45;;;;;;;22.00;14.00;;;;;;;17.71;58.68;98862.39;262499;1090;22992;-72
2021/06/15 21:22:15;;;;;;;22.90;15.85;;;;;;;17.61;59.38;98856.28;262828;1089;22845;-72
2021/06/15 21:27:23;;;;;;;21.03;14.40;;;;;;;17.56;60.18;98858.41;262846;1090;24365;-70
2021/06/15 21:32:33;;;;;;;17.55;13.50;;;;;;;17.52;60.30;98871.81;262918;1090;22939;-72
2021/06/15 21:37:37;;;;;;;19.50;12.25;;;;;;;17.47;60.78;98863.88;262544;1089;22816;-71
2021/06/15 21:42:50;;;;;;;20.65;14.65;;;;;;;17.51;61.55;98864.02;262920;1090;22856;-72
2021/06/15 21:48:15;;;;;;;19.00;13.90;;;;;;;17.50;61.78;98863.23;261979;1090;22801;-71
2021/06/15 21:53:22;;;;;;;18.70;13.10;;;;;;;17.55;62.21;98854.89;262554;1090;22970;-72
2021/06/15 21:58:29;;;;;;;16.90;12.00;;;;;;;17.61;62.34;98864.41;262505;1090;23620;-72
2021/06/15 22:03:47;;;;;;;15.97;12.93;;;;;;;17.68;62.88;98860.36;262894;1090;22912;-71
2021/06/15 22:14:59;;;;;;;15.10;10.35;;;;;;;17.71;63.40;98867.81;262437;1090;22961;-72
2021/06/15 22:20:22;;;;;;;14.75;9.40;;;;;;;17.69;63.78;98876.27;262658;1089;22797;-72
2021/06/15 22:25:33;;;;;;;13.75;10.20;;;;;;;17.67;64.17;98872.30;262818;1090;22825;-73
2021/06/15 22:30:50;;;;;;;15.63;11.80;;;;;;;17.65;63.88;98869.16;262577;1089;26299;-70
2021/06/15 22:36:08;;;;;;;16.75;12.00;;;;;;;17.66;63.85;98868.03;262464;1090;22950;-73
2021/06/15 22:41:18;;;;;;;12.25;10.95;;;;;;;17.66;64.03;98862.62;262535;1089;25893;-72
2021/06/15 22:46:43;;;;;;;15.57;10.20;;;;;;;17.73;64.13;98862.86;262783;1090;26008;-71
2021/06/15 22:57:59;;;;;;;;;;;;;;;;;;;;;
2021/06/15 23:03:21;;;;;;;14.90;10.75;;;;;;;17.97;64.26;98864.09;262575;1090;22965;-72
2021/06/15 23:08:43;;;;;;;14.35;10.25;;;;;;;18.01;64.41;98868.50;262941;1089;22819;-72
2021/06/15 23:14:07;;;;;;;13.80;11.50;;;;;;;18.10;64.67;98862.97;262850;1088;25957;-71
2021/06/15 23:19:15;;;;;;;14.35;11.10;;;;;;;18.12;64.69;98858.80;262491;1090;26108;-72
2021/06/15 23:24:25;;;;;;;17.25;11.18;;;;;;;18.10;64.58;98863.78;262874;1090;22805;-72
2021/06/15 23:29:35;;;;;;;14.35;11.05;;;;;;;18.10;64.62;98871.91;262001;1088;22815;-72
2021/06/15 23:34:50;;;;;;;12.53;10.23;;;;;;;18.12;64.99;98877.00;261953;1090;23632;-72
2021/06/15 23:40:38;;;;;;;;;;;;;;;;;;;;;
2021/06/15 23:47:33;;;;;;;;;;;;;;;;;;;;;
2021/06/15 23:54:52;;;;;;;11.87;8.90;;;;;;;17.95;65.88;98875.27;262648;1089;23733;-72
